createdAt,value
2022-09-28T00:00:36.843Z,93943.71
2022-09-28T00:03:03.249Z,93939.84
2022-09-28T00:05:29.526Z,93939.84
2022-09-28T00:07:55.891Z,93928.36
2022-09-28T00:10:22.228Z,93928.36
2022-09-28T00:12:48.577Z,93924.97
2022-09-28T00:15:14.913Z,93924.97
2022-09-28T00:17:41.257Z,93923.03
2022-09-28T00:20:07.626Z,93897.20
2022-09-28T00:22:33.976Z,93922.55
2022-09-28T00:25:00.314Z,93903.14
2022-09-28T00:27:26.678Z,93903.14
2022-09-28T00:29:53.011Z,93927.24
2022-09-28T00:32:19.426Z,93901.34
2022-09-28T00:34:45.773Z,93908.14
2022-09-28T00:37:12.104Z,93908.95
2022-09-28T00:39:38.474Z,93908.95
2022-09-28T00:42:04.820Z,93912.06
2022-09-28T00:44:31.164Z,93912.06
2022-09-28T00:46:57.544Z,93916.89
2022-09-28T00:49:23.887Z,93902.16
2022-09-28T00:51:50.227Z,93897.98
2022-09-28T00:54:16.590Z,93897.98
2022-09-28T00:56:42.929Z,93916.55
2022-09-28T00:59:09.358Z,93912.84
2022-09-28T01:01:35.654Z,93912.38
2022-09-28T01:04:01.992Z,93912.38
2022-09-28T01:06:28.344Z,93912.38
2022-09-28T01:08:54.692Z,93915.73
2022-09-28T01:11:21.037Z,93924.30
2022-09-28T01:13:47.437Z,93926.23
2022-09-28T01:16:13.859Z,93907.63
2022-09-28T01:18:40.123Z,93926.37
2022-09-28T01:21:06.471Z,93925.89
2022-09-28T01:23:32.803Z,93925.89
2022-09-28T01:25:59.140Z,93924.30
2022-09-28T01:28:25.492Z,93919.92
2022-09-28T01:30:51.843Z,93919.92
2022-09-28T01:33:18.184Z,93916.55
2022-09-28T01:35:44.557Z,93929.60
2022-09-28T01:38:10.926Z,93937.20
2022-09-28T01:40:37.326Z,93926.06
2022-09-28T01:43:03.600Z,93939.11
2022-09-28T01:45:29.950Z,93939.11
2022-09-28T01:47:56.282Z,93958.33
2022-09-28T01:50:22.635Z,93922.61
2022-09-28T01:52:48.970Z,93931.03
2022-09-28T01:55:15.308Z,93931.03
2022-09-28T01:57:41.646Z,93943.45
2022-09-28T02:00:07.990Z,93942.64
2022-09-28T02:02:34.407Z,93938.77
2022-09-28T02:05:02.688Z,93940.57
2022-09-28T02:07:27.025Z,93952.97
2022-09-28T02:09:53.366Z,93952.97
2022-09-28T02:12:19.731Z,93940.70
2022-09-28T02:14:46.075Z,93951.14
2022-09-28T02:17:12.422Z,93951.14
2022-09-28T02:19:38.760Z,93959.59
2022-09-28T02:22:05.101Z,93950.70
2022-09-28T02:24:31.488Z,93942.78
2022-09-28T02:26:57.822Z,93965.03
2022-09-28T02:29:24.162Z,93968.29
2022-09-28T02:31:50.541Z,93952.30
2022-09-28T02:34:19.255Z,93958.44
2022-09-28T02:36:45.593Z,93956.81
2022-09-28T02:39:11.926Z,93953.89
2022-09-28T02:41:38.275Z,93953.89
2022-09-28T02:44:04.615Z,93956.95
2022-09-28T02:49:21.341Z,93947.61
2022-09-28T02:51:36.197Z,93934.84
2022-09-28T02:54:02.527Z,93948.42
2022-09-28T02:56:28.879Z,93948.42
2022-09-28T02:58:55.219Z,93958.88
2022-09-28T03:01:21.598Z,93959.05
2022-09-28T03:03:47.897Z,93959.05
2022-09-28T03:06:14.243Z,93957.09
2022-09-28T03:08:40.611Z,93963.40
2022-09-28T03:11:06.952Z,93964.83
2022-09-28T03:13:33.296Z,93960.62
2022-09-28T03:15:59.689Z,93961.88
2022-09-28T03:18:25.978Z,93961.88
2022-09-28T03:20:52.328Z,93975.11
2022-09-28T03:23:25.845Z,93974.81
2022-09-28T03:25:45.048Z,93977.05
2022-09-28T03:28:11.344Z,93991.11
2022-09-28T03:30:37.696Z,93991.58
2022-09-28T03:33:04.039Z,93991.58
2022-09-28T03:35:30.392Z,93993.18
2022-09-28T03:37:56.817Z,93985.13
2022-09-28T03:40:23.155Z,93969.88
2022-09-28T03:42:49.416Z,93969.88
2022-09-28T03:45:15.760Z,93990.25
2022-09-28T03:47:42.093Z,93997.52
2022-09-28T03:50:08.433Z,93993.65
2022-09-28T03:52:34.773Z,93993.65
2022-09-28T03:55:01.108Z,94000.23
2022-09-28T03:57:27.450Z,94004.78
2022-09-28T03:59:53.799Z,93995.24
2022-09-28T04:02:20.170Z,93995.08
2022-09-28T04:04:46.470Z,94000.41
2022-09-28T04:07:12.809Z,94000.41
2022-09-28T04:09:39.146Z,94001.69
2022-09-28T04:12:05.493Z,93989.91
2022-09-28T04:14:31.834Z,93989.91
2022-09-28T04:16:58.173Z,93989.91
2022-09-28T04:19:24.517Z,93989.27
2022-09-28T04:21:50.859Z,93985.39
2022-09-28T04:24:17.202Z,93972.67
2022-09-28T04:26:43.541Z,93968.62
2022-09-28T04:29:09.891Z,93986.98
2022-09-28T04:31:36.274Z,93961.62
2022-09-28T04:34:02.572Z,93976.45
2022-09-28T04:36:28.917Z,93976.45
2022-09-28T04:38:55.262Z,93973.92
2022-09-28T04:41:21.597Z,93973.92
2022-09-28T04:43:47.947Z,93983.73
2022-09-28T04:46:14.311Z,93983.73
2022-09-28T04:48:40.622Z,93985.39
2022-09-28T04:51:06.953Z,93985.39
2022-09-28T04:53:33.296Z,93975.92
2022-09-28T04:55:59.628Z,93991.88
2022-09-28T04:58:25.982Z,93991.88
2022-09-28T05:00:52.357Z,93960.27
2022-09-28T05:03:18.663Z,93960.27
2022-09-28T05:05:44.996Z,93989.72
2022-09-28T05:08:11.336Z,93989.72
2022-09-28T05:10:37.795Z,93943.67
2022-09-28T05:13:04.146Z,93969.55
2022-09-28T05:15:30.472Z,93974.20
2022-09-28T05:17:56.842Z,93997.80
2022-09-28T05:20:23.187Z,93997.80
2022-09-28T05:22:49.535Z,93983.57
2022-09-28T05:25:15.872Z,93983.57
2022-09-28T05:27:42.217Z,94007.38
2022-09-28T05:30:08.545Z,94007.38
2022-09-28T05:32:34.920Z,94007.81
2022-09-28T05:35:01.264Z,94040.23
2022-09-28T05:37:27.629Z,94008.64
2022-09-28T05:39:53.983Z,94007.86
2022-09-28T05:42:20.353Z,93983.12
2022-09-28T05:44:46.696Z,94003.20
2022-09-28T05:47:13.032Z,94021.44
2022-09-28T05:49:39.364Z,94021.44
2022-09-28T05:52:05.697Z,94014.03
2022-09-28T05:54:32.048Z,94013.80
2022-09-28T05:56:58.371Z,94013.80
2022-09-28T05:59:24.712Z,93985.80
2022-09-28T06:01:52.000Z,93985.80
2022-09-28T06:04:17.670Z,94010.73
2022-09-28T06:06:43.839Z,94007.28
2022-09-28T06:09:10.177Z,93986.63
2022-09-28T06:11:36.528Z,94024.72
2022-09-28T06:14:02.877Z,94014.08
2022-09-28T06:16:29.262Z,93998.72
2022-09-28T06:18:55.547Z,93994.69
2022-09-28T06:21:21.879Z,94016.50
2022-09-28T06:23:49.418Z,94016.83
2022-09-28T06:26:14.619Z,94018.41
2022-09-28T06:28:40.985Z,94026.97
2022-09-28T06:31:07.404Z,94003.89
2022-09-28T06:33:33.650Z,94023.13
2022-09-28T06:36:00.006Z,94023.13
2022-09-28T06:38:26.411Z,94025.20
2022-09-28T06:40:52.788Z,94010.97
2022-09-28T06:43:19.097Z,94030.92
2022-09-28T06:45:45.466Z,94042.63
2022-09-28T06:48:11.798Z,94041.28
2022-09-28T06:50:38.132Z,94030.08
2022-09-28T06:53:04.543Z,94008.27
2022-09-28T06:55:32.077Z,94043.05
2022-09-28T06:57:57.258Z,94043.05
2022-09-28T07:00:23.591Z,94050.19
2022-09-28T07:02:49.980Z,94020.06
2022-09-28T07:05:16.316Z,94020.06
2022-09-28T07:07:42.667Z,94046.81
2022-09-28T07:10:09.014Z,94049.70
2022-09-28T07:12:35.363Z,94039.37
2022-09-28T07:15:01.717Z,94035.69
2022-09-28T07:17:28.129Z,94036.59
2022-09-28T07:19:54.431Z,94049.88
2022-09-28T07:22:31.775Z,94034.18
2022-09-28T07:24:47.151Z,94031.09
2022-09-28T07:27:13.505Z,94041.77
2022-09-28T07:29:39.851Z,94030.28
2022-09-28T07:32:06.194Z,94049.85
2022-09-28T07:34:32.529Z,94029.63
2022-09-28T07:36:58.926Z,94044.52
2022-09-28T07:39:25.270Z,94021.02
2022-09-28T07:41:54.390Z,94027.50
2022-09-28T07:44:18.022Z,94051.12
2022-09-28T07:46:44.316Z,94038.17
2022-09-28T07:49:12.440Z,94053.88
2022-09-28T07:51:38.269Z,94053.56
2022-09-28T07:54:03.399Z,94050.97
2022-09-28T07:56:29.753Z,94054.84
2022-09-28T07:58:56.092Z,94068.61
2022-09-28T08:01:24.462Z,94060.93
2022-09-28T08:03:48.796Z,94060.93
2022-09-28T08:06:15.140Z,94065.48
2022-09-28T08:08:41.513Z,94055.92
2022-09-28T08:11:07.869Z,94053.92
2022-09-28T08:13:34.213Z,94067.03
2022-09-28T08:16:00.556Z,94063.95
2022-09-28T08:18:26.893Z,94069.94
2022-09-28T08:20:53.250Z,94053.80
2022-09-28T08:23:19.579Z,94053.80
2022-09-28T08:25:45.919Z,94065.44
2022-09-28T08:28:12.266Z,94060.09
2022-09-28T08:30:38.712Z,94057.00
2022-09-28T08:33:04.982Z,94068.11
2022-09-28T08:35:31.326Z,94068.72
2022-09-28T08:37:57.671Z,94007.66
2022-09-28T08:40:24.071Z,94058.59
2022-09-28T08:42:50.393Z,94035.16
2022-09-28T08:45:16.741Z,94035.16
2022-09-28T08:47:43.071Z,94053.21
2022-09-28T08:50:09.515Z,94052.10
2022-09-28T08:52:35.790Z,94051.98
2022-09-28T08:55:02.150Z,94045.31
2022-09-28T08:57:28.482Z,94041.61
2022-09-28T08:59:54.826Z,94034.44
2022-09-28T09:02:21.249Z,94025.34
2022-09-28T09:04:47.507Z,94032.03
2022-09-28T09:07:13.842Z,94029.72
2022-09-28T09:09:40.193Z,94028.44
2022-09-28T09:12:06.530Z,94027.00
2022-09-28T09:14:32.882Z,94025.69
2022-09-28T09:17:00.549Z,94028.31
2022-09-28T09:19:25.611Z,94001.61
2022-09-28T09:21:51.958Z,94027.55
2022-09-28T09:24:18.361Z,94027.86
2022-09-28T09:26:44.661Z,94023.91
2022-09-28T09:29:11.043Z,94032.02
2022-09-28T09:31:37.381Z,94023.78
2022-09-28T09:34:03.741Z,94024.82
2022-09-28T09:36:30.082Z,94022.18
2022-09-28T09:38:56.444Z,94020.86
2022-09-28T09:41:22.793Z,94015.77
2022-09-28T09:43:49.133Z,94018.94
2022-09-28T09:46:15.497Z,94016.44
2022-09-28T09:48:41.823Z,94005.03
2022-09-28T09:51:08.157Z,94001.77
2022-09-28T09:53:37.705Z,94001.95
2022-09-28T09:56:00.833Z,94004.45
2022-09-28T09:58:27.181Z,94001.74
2022-09-28T10:00:53.560Z,93998.66
2022-09-28T10:03:19.862Z,93994.05
2022-09-28T10:05:46.242Z,93989.83
2022-09-28T10:08:12.608Z,93995.16
2022-09-28T10:10:38.971Z,93999.42
2022-09-28T10:13:05.319Z,93987.25
2022-09-28T10:15:31.652Z,93992.64
2022-09-28T10:17:59.020Z,93992.80
2022-09-28T10:20:25.712Z,93995.77
2022-09-28T10:22:50.728Z,93993.41
2022-09-28T10:25:17.111Z,93987.20
2022-09-28T10:27:43.492Z,93988.71
2022-09-28T10:30:09.835Z,93988.16
2022-09-28T10:32:36.192Z,93983.92
2022-09-28T10:35:02.535Z,93978.70
2022-09-28T10:37:28.956Z,93979.22
2022-09-28T10:39:55.300Z,93972.27
2022-09-28T10:42:21.726Z,93967.89
2022-09-28T10:44:48.037Z,93970.27
2022-09-28T10:47:14.381Z,93958.91
2022-09-28T10:49:45.875Z,93960.54
2022-09-28T10:52:07.070Z,93938.25
2022-09-28T10:54:33.420Z,93956.91
2022-09-28T10:56:59.782Z,93957.05
2022-09-28T10:59:26.116Z,93950.42
2022-09-28T11:01:52.505Z,93944.34
2022-09-28T11:04:19.012Z,93927.98
2022-09-28T11:06:45.367Z,93942.63
2022-09-28T11:09:11.600Z,93930.45
2022-09-28T11:11:37.941Z,93929.80
2022-09-28T11:14:04.295Z,93927.15
2022-09-28T11:16:30.703Z,93935.94
2022-09-28T11:18:56.989Z,93935.75
2022-09-28T11:21:23.331Z,93931.56
2022-09-28T11:23:49.709Z,93922.21
2022-09-28T11:26:18.605Z,93923.97
2022-09-28T11:28:42.455Z,93924.77
2022-09-28T11:31:08.895Z,93922.28
2022-09-28T11:33:35.203Z,93919.58
2022-09-28T11:36:01.550Z,93910.78
2022-09-28T11:38:27.884Z,93904.13
2022-09-28T11:40:54.385Z,93901.83
2022-09-28T11:43:20.597Z,93900.04
2022-09-28T11:45:46.971Z,93898.45
2022-09-28T11:48:13.307Z,93899.62
2022-09-28T11:50:39.667Z,93905.69
2022-09-28T11:53:06.018Z,93906.34
2022-09-28T11:55:32.372Z,93908.16
2022-09-28T11:57:58.761Z,93910.27
2022-09-28T12:00:25.120Z,93912.86
2022-09-28T12:02:51.655Z,93915.52
2022-09-28T12:05:20.847Z,93911.63
2022-09-28T12:07:44.211Z,93906.27
2022-09-28T12:10:10.558Z,93901.34
2022-09-28T12:12:36.915Z,93895.20
2022-09-28T12:15:03.286Z,93887.58
2022-09-28T12:17:29.661Z,93884.81
2022-09-28T12:19:55.985Z,93889.39
2022-09-28T12:22:22.342Z,93885.59
2022-09-28T12:24:48.719Z,93887.06
2022-09-28T12:27:15.061Z,93890.50
2022-09-28T12:29:41.410Z,93893.19
2022-09-28T12:32:07.757Z,93892.58
2022-09-28T12:34:34.105Z,93898.38
2022-09-28T12:37:00.446Z,93899.66
2022-09-28T12:39:40.953Z,93893.45
2022-09-28T12:41:53.139Z,93898.38
2022-09-28T12:44:19.497Z,93889.98
2022-09-28T12:46:45.980Z,93887.58
2022-09-28T12:51:38.590Z,93895.14
2022-09-28T12:54:05.072Z,93895.50
2022-09-28T12:56:31.499Z,93896.60
2022-09-28T12:58:57.857Z,93890.30
2022-09-28T13:01:24.250Z,93902.12
2022-09-28T13:03:50.554Z,93899.84
2022-09-28T13:06:16.894Z,93895.76
2022-09-28T13:08:43.239Z,93888.78
2022-09-28T13:11:09.586Z,93887.16
2022-09-28T13:13:35.943Z,93887.00
2022-09-28T13:16:02.332Z,93892.84
2022-09-28T13:18:28.644Z,93891.73
2022-09-28T13:20:56.417Z,93893.48
2022-09-28T13:23:21.336Z,93898.38
2022-09-28T13:25:47.674Z,93902.25
2022-09-28T13:28:14.046Z,93901.14
2022-09-28T13:30:42.220Z,93891.73
2022-09-28T13:33:06.756Z,93887.70
2022-09-28T13:35:33.095Z,93885.14
2022-09-28T13:37:59.432Z,93881.80
2022-09-28T13:40:25.802Z,93887.24
2022-09-28T13:42:52.211Z,93895.16
2022-09-28T13:45:18.554Z,93899.42
2022-09-28T13:47:44.893Z,93895.79
2022-09-28T13:50:11.377Z,93891.73
2022-09-28T13:52:37.621Z,93888.25
2022-09-28T13:55:03.956Z,93890.45
2022-09-28T13:57:30.311Z,93894.52
2022-09-28T13:59:56.655Z,93888.34
2022-09-28T14:02:23.034Z,93887.93
2022-09-28T14:04:49.348Z,93878.55
2022-09-28T14:07:15.780Z,93878.72
2022-09-28T14:09:42.077Z,93865.36
2022-09-28T14:12:08.435Z,93865.00
2022-09-28T14:14:34.776Z,93869.39
2022-09-28T14:17:01.120Z,93873.28
2022-09-28T14:19:27.459Z,93875.88
2022-09-28T14:21:53.821Z,93877.87
2022-09-28T14:24:20.143Z,93876.44
2022-09-28T14:26:46.498Z,93866.54
2022-09-28T14:29:12.871Z,93864.98
2022-09-28T14:31:40.422Z,93871.60
2022-09-28T14:34:05.562Z,93876.15
2022-09-28T14:36:31.944Z,93874.47
2022-09-28T14:38:58.281Z,93875.44
2022-09-28T14:41:24.630Z,93878.06
2022-09-28T14:43:50.966Z,93881.22
2022-09-28T14:46:17.460Z,93879.36
2022-09-28T14:48:43.711Z,93879.75
2022-09-28T14:51:10.053Z,93877.83
2022-09-28T14:53:36.407Z,93886.13
2022-09-28T14:56:02.768Z,93877.05
2022-09-28T14:58:29.099Z,93880.45
2022-09-28T15:00:55.447Z,93885.97
2022-09-28T15:03:21.794Z,93890.75
2022-09-28T15:05:48.207Z,93894.29
2022-09-28T15:08:14.550Z,93889.36
2022-09-28T15:10:40.889Z,93890.86
2022-09-28T15:13:07.225Z,93888.94
2022-09-28T15:15:33.631Z,93891.21
2022-09-28T15:17:59.943Z,93881.16
2022-09-28T15:20:26.290Z,93893.97
2022-09-28T15:22:52.640Z,93896.80
2022-09-28T15:25:18.979Z,93903.28
2022-09-28T15:27:45.310Z,93909.13
2022-09-28T15:30:11.654Z,93907.05
2022-09-28T15:32:37.988Z,93913.21
2022-09-28T15:35:04.336Z,93913.38
2022-09-28T15:37:30.672Z,93910.16
2022-09-28T15:39:57.031Z,93906.42
2022-09-28T15:42:24.379Z,93915.03
2022-09-28T15:44:49.717Z,93918.56
2022-09-28T15:47:16.057Z,93917.95
2022-09-28T15:49:42.402Z,93919.59
2022-09-28T15:52:08.737Z,93916.81
2022-09-28T15:54:35.085Z,93918.46
2022-09-28T15:57:01.464Z,93913.11
2022-09-28T15:59:27.987Z,93917.00
2022-09-28T16:01:54.374Z,93921.22
2022-09-28T16:04:20.705Z,93912.76
2022-09-28T16:06:47.037Z,93914.73
2022-09-28T16:09:13.380Z,93911.81
2022-09-28T16:11:39.718Z,93913.11
2022-09-28T16:14:06.114Z,93909.22
2022-09-28T16:16:32.416Z,93913.27
2022-09-28T16:18:58.753Z,93902.38
2022-09-28T16:21:25.139Z,93907.38
2022-09-28T16:23:51.474Z,93907.23
2022-09-28T16:26:17.819Z,93906.48
2022-09-28T16:28:44.152Z,93911.68
2022-09-28T16:31:10.563Z,93915.73
2022-09-28T16:33:36.858Z,93921.87
2022-09-28T16:36:03.227Z,93922.06
2022-09-28T16:38:29.558Z,93923.20
2022-09-28T16:40:55.956Z,93927.44
2022-09-28T16:43:22.272Z,93928.09
2022-09-28T16:45:48.628Z,93926.47
2022-09-28T16:48:14.965Z,93934.23
2022-09-28T16:50:41.311Z,93937.53
2022-09-28T16:53:07.657Z,93937.05
2022-09-28T16:55:40.412Z,93937.66
2022-09-28T16:58:00.389Z,93933.31
2022-09-28T17:00:26.740Z,93930.36
2022-09-28T17:02:53.098Z,93927.44
2022-09-28T17:05:19.413Z,93921.66
2022-09-28T17:07:45.754Z,93922.80
2022-09-28T17:10:12.108Z,93919.06
2022-09-28T17:12:38.479Z,93921.01
2022-09-28T17:15:04.817Z,93914.68
2022-09-28T17:17:31.193Z,93924.58
2022-09-28T17:19:57.549Z,93925.87
2022-09-28T17:22:23.874Z,93920.03
2022-09-28T17:24:50.218Z,93921.79
2022-09-28T17:27:16.583Z,93914.19
2022-09-28T17:29:42.924Z,93920.36
2022-09-28T17:32:09.255Z,93921.16
2022-09-28T17:34:35.619Z,93924.57
2022-09-28T17:37:01.956Z,93922.95
2022-09-28T17:39:28.304Z,93919.73
2022-09-28T17:41:54.636Z,93921.84
2022-09-28T17:44:21.153Z,93930.33
2022-09-28T17:46:47.545Z,93930.66
2022-09-28T17:49:13.687Z,93937.62
2022-09-28T17:51:40.015Z,93941.17
2022-09-28T17:54:06.362Z,93941.52
2022-09-28T17:56:32.817Z,93950.06
2022-09-28T17:58:59.061Z,93951.57
2022-09-28T18:01:25.496Z,93960.49
2022-09-28T18:03:51.748Z,93961.79
2022-09-28T18:06:18.082Z,93961.97
2022-09-28T18:08:44.463Z,93963.59
2022-09-28T18:11:10.802Z,93962.16
2022-09-28T18:13:37.211Z,93967.99
2022-09-28T18:16:04.897Z,93972.89
2022-09-28T18:18:29.889Z,93976.10
2022-09-28T18:20:56.228Z,93971.07
2022-09-28T18:23:22.573Z,93970.24
2022-09-28T18:25:48.913Z,93970.59
2022-09-28T18:28:15.254Z,93983.22
2022-09-28T18:30:41.637Z,93979.37
2022-09-28T18:33:07.933Z,93984.05
2022-09-28T18:35:34.264Z,93988.28
2022-09-28T18:38:00.656Z,93979.72
2022-09-28T18:40:27.039Z,93984.72
2022-09-28T18:42:53.344Z,93980.20
2022-09-28T18:45:19.684Z,93974.69
2022-09-28T18:47:46.027Z,93981.17
2022-09-28T18:50:12.370Z,93990.73
2022-09-28T18:52:38.712Z,93991.55
2022-09-28T18:55:05.046Z,93997.06
2022-09-28T18:57:31.393Z,93993.81
2022-09-28T18:59:57.728Z,93999.95
2022-09-28T19:02:24.148Z,94008.09
2022-09-28T19:04:50.400Z,94011.01
2022-09-28T19:07:16.836Z,94010.87
2022-09-28T19:09:43.166Z,94006.97
2022-09-28T19:12:09.509Z,94011.98
2022-09-28T19:14:35.853Z,94005.33
2022-09-28T19:17:02.228Z,94009.09
2022-09-28T19:19:28.569Z,94011.20
2022-09-28T19:21:54.945Z,94006.48
2022-09-28T19:24:21.249Z,94009.09
2022-09-28T19:26:47.587Z,94004.86
2022-09-28T19:29:13.934Z,94008.27
2022-09-28T19:31:40.272Z,94007.18
2022-09-28T19:34:08.236Z,94014.10
2022-09-28T19:36:32.949Z,94008.91
2022-09-28T19:38:59.279Z,94012.32
2022-09-28T19:41:25.674Z,94013.95
2022-09-28T19:43:52.016Z,94018.51
2022-09-28T19:46:18.413Z,94023.18
2022-09-28T19:48:44.701Z,94022.36
2022-09-28T19:51:11.048Z,94027.59
2022-09-28T19:53:37.384Z,94024.48
2022-09-28T19:56:03.728Z,94029.99
2022-09-28T19:58:30.072Z,94035.38
2022-09-28T20:00:56.421Z,94026.45
2022-09-28T20:03:22.754Z,94038.61
2022-09-28T20:05:49.101Z,94034.42
2022-09-28T20:08:15.445Z,94026.79
2022-09-28T20:10:41.783Z,94026.80
2022-09-28T20:13:08.117Z,94027.13
2022-09-28T20:15:34.493Z,94026.63
2022-09-28T20:18:00.846Z,94021.80
2022-09-28T20:20:27.187Z,94031.56
2022-09-28T20:22:53.520Z,94032.20
2022-09-28T20:25:19.856Z,94039.16
2022-09-28T20:27:46.192Z,94040.32
2022-09-28T20:30:12.530Z,94041.94
2022-09-28T20:32:38.868Z,94042.27
2022-09-28T20:35:05.205Z,94047.76
2022-09-28T20:37:31.551Z,94040.65
2022-09-28T20:39:57.888Z,94039.02
2022-09-28T20:42:24.319Z,94032.69
2022-09-28T20:44:50.694Z,94042.09
2022-09-28T20:47:17.027Z,94043.88
2022-09-28T20:49:43.364Z,94043.88
2022-09-28T20:52:09.701Z,94042.58
2022-09-28T20:54:36.047Z,94048.42
2022-09-28T20:57:02.377Z,94056.84
2022-09-28T20:59:29.685Z,94049.05
2022-09-28T21:01:55.158Z,94055.39
2022-09-28T21:04:21.526Z,94055.20
2022-09-28T21:06:47.788Z,94049.38
2022-09-28T21:09:14.132Z,94017.01
2022-09-28T21:11:40.484Z,94061.05
2022-09-28T21:14:06.822Z,94063.45
2022-09-28T21:16:33.154Z,94066.86
2022-09-28T21:18:59.506Z,94062.64
2022-09-28T21:21:25.833Z,94067.83
2022-09-28T21:23:52.169Z,94074.64
2022-09-28T21:26:18.507Z,94075.12
2022-09-28T21:28:44.856Z,94068.00
2022-09-28T21:31:11.243Z,94062.97
2022-09-28T21:33:37.541Z,94071.25
2022-09-28T21:36:03.879Z,94086.98
2022-09-28T21:38:30.218Z,94100.25
2022-09-28T21:40:56.610Z,94089.25
2022-09-28T21:43:22.895Z,94084.39
2022-09-28T21:45:49.235Z,94088.77
2022-09-28T21:48:15.583Z,94085.69
2022-09-28T21:50:41.936Z,94089.25
2022-09-28T21:53:08.277Z,94089.09
2022-09-28T21:55:34.630Z,94083.91
2022-09-28T21:58:00.974Z,94085.84
2022-09-28T22:00:27.324Z,94084.55
2022-09-28T22:02:53.703Z,94077.72
2022-09-28T22:05:19.988Z,94059.91
2022-09-28T22:07:46.334Z,94062.50
2022-09-28T22:10:12.677Z,94056.02
2022-09-28T22:12:39.015Z,94063.64
2022-09-28T22:15:05.344Z,94061.38
2022-09-28T22:17:31.727Z,94072.88
2022-09-28T22:19:59.014Z,94065.91
2022-09-28T22:22:28.395Z,94060.58
2022-09-28T22:24:50.740Z,94048.09
2022-09-28T22:27:17.082Z,94062.84
2022-09-28T22:29:43.418Z,94071.43
2022-09-28T22:32:09.766Z,94080.17
2022-09-28T22:34:36.096Z,94076.13
2022-09-28T22:37:02.451Z,94082.14
2022-09-28T22:39:28.794Z,94070.47
2022-09-28T22:41:55.136Z,94069.50
2022-09-28T22:44:21.475Z,94061.72
2022-09-28T22:46:47.888Z,94063.17
2022-09-28T22:49:14.160Z,94065.91
2022-09-28T22:51:40.495Z,94064.62
2022-09-28T22:54:06.856Z,94065.61
2022-09-28T22:56:33.200Z,94062.69
2022-09-28T22:58:59.539Z,94069.16
2022-09-28T23:01:25.970Z,94080.51
2022-09-28T23:03:52.240Z,94058.13
2022-09-28T23:06:18.583Z,94070.62
2022-09-28T23:08:44.925Z,94070.62
2022-09-28T23:11:11.265Z,94066.73
2022-09-28T23:13:37.596Z,94065.76
2022-09-28T23:16:03.980Z,94071.77
2022-09-28T23:18:30.274Z,94073.06
2022-09-28T23:20:56.615Z,94068.36
2022-09-28T23:23:22.952Z,94063.80
2022-09-28T23:25:49.295Z,94072.73
2022-09-28T23:28:15.633Z,94073.21
2022-09-28T23:30:41.979Z,94076.13
2022-09-28T23:33:08.324Z,94063.98
2022-09-28T23:35:34.663Z,94056.36
2022-09-28T23:38:00.992Z,94056.20
2022-09-28T23:40:27.401Z,94056.84
2022-09-28T23:42:53.672Z,94059.28
2022-09-28T23:45:20.037Z,94054.77
2022-09-28T23:47:46.366Z,94058.80
2022-09-28T23:50:12.706Z,94065.30
2022-09-28T23:52:39.044Z,94069.52
2022-09-28T23:55:05.381Z,94064.97
2022-09-28T23:57:31.723Z,94065.92
2022-09-28T23:59:58.064Z,94042.96
